createdAt,value
2023-05-14T00:01:42.267Z,101559.00
2023-05-14T00:03:43.870Z,101567.47
2023-05-14T00:05:45.434Z,101558.94
2023-05-14T00:07:46.864Z,101574.47
2023-05-14T00:09:48.281Z,101572.09
2023-05-14T00:11:49.842Z,101555.97
2023-05-14T00:13:51.270Z,101577.78
2023-05-14T00:15:52.702Z,101522.63
2023-05-14T00:17:54.474Z,101579.16
2023-05-14T00:19:55.903Z,101571.00
2023-05-14T00:21:57.372Z,101574.22
2023-05-14T00:23:59.046Z,101556.91
2023-05-14T00:26:00.549Z,101576.75
2023-05-14T00:28:02.013Z,101555.09
2023-05-14T00:30:05.568Z,101572.97
2023-05-14T00:32:07.302Z,101571.09
2023-05-14T00:34:08.700Z,101578.34
2023-05-14T00:36:10.265Z,101579.91
2023-05-14T00:38:11.704Z,101575.31
2023-05-14T00:40:13.215Z,101553.50
2023-05-14T00:42:14.786Z,101559.50
2023-05-14T00:44:16.164Z,101568.50
2023-05-14T00:46:17.734Z,101566.44
2023-05-14T00:48:20.692Z,101564.31
2023-05-14T00:50:22.975Z,101566.03
2023-05-14T00:52:25.098Z,101567.84
2023-05-14T00:54:27.989Z,101556.31
2023-05-14T00:56:29.521Z,101572.00
2023-05-14T00:58:31.159Z,101565.41
2023-05-14T01:00:32.892Z,101565.84
2023-05-14T01:02:34.516Z,101569.50
2023-05-14T01:04:36.157Z,101558.47
2023-05-14T01:06:40.532Z,101580.63
2023-05-14T01:09:08.900Z,101576.88
2023-05-14T01:11:17.386Z,101571.19
2023-05-14T01:13:27.554Z,101561.84
2023-05-14T01:15:31.552Z,101576.88
2023-05-14T01:17:38.498Z,101576.41
2023-05-14T01:19:42.422Z,101571.25
2023-05-14T01:21:43.878Z,101569.78
2023-05-14T01:23:45.251Z,101521.50
2023-05-14T01:25:47.375Z,101555.13
2023-05-14T01:27:51.494Z,101568.38
2023-05-14T01:30:29.312Z,101573.69
2023-05-14T01:32:31.667Z,101568.84
2023-05-14T01:34:35.365Z,101554.75
2023-05-14T01:36:37.069Z,101577.50
2023-05-14T01:38:39.119Z,101571.25
2023-05-14T01:40:41.731Z,101571.97
2023-05-14T01:42:44.481Z,101568.41
2023-05-14T01:44:46.159Z,101554.66
2023-05-14T01:46:47.565Z,101565.50
2023-05-14T01:48:48.995Z,101558.84
2023-05-14T01:50:50.485Z,101555.63
2023-05-14T01:52:51.926Z,101542.75
2023-05-14T01:54:53.383Z,101554.53
2023-05-14T01:56:55.018Z,101538.28
2023-05-14T01:58:56.410Z,101544.56
2023-05-14T02:00:58.195Z,101549.88
2023-05-14T02:02:59.758Z,101528.44
2023-05-14T02:05:01.220Z,101534.22
2023-05-14T02:07:02.617Z,101541.81
2023-05-14T02:09:05.125Z,101543.72
2023-05-14T02:11:06.580Z,101550.25
2023-05-14T02:13:07.974Z,101544.00
2023-05-14T02:15:09.911Z,101531.00
2023-05-14T02:17:11.728Z,101536.50
2023-05-14T02:19:13.206Z,101532.44
2023-05-14T02:21:14.785Z,101535.66
2023-05-14T02:23:16.173Z,101527.59
2023-05-14T02:25:17.604Z,101515.88
2023-05-14T02:27:19.808Z,101532.22
2023-05-14T02:29:21.218Z,101534.88
2023-05-14T02:31:22.691Z,101530.41
2023-05-14T02:33:25.081Z,101518.41
2023-05-14T02:35:26.487Z,101531.38
2023-05-14T02:37:27.904Z,101521.25
2023-05-14T02:39:29.546Z,101517.53
2023-05-14T02:41:30.932Z,101524.75
2023-05-14T02:43:32.321Z,101526.19
2023-05-14T02:45:33.827Z,101524.88
2023-05-14T02:47:37.849Z,101507.50
2023-05-14T02:49:39.670Z,101519.06
2023-05-14T02:51:41.299Z,101498.59
2023-05-14T02:53:42.766Z,101513.06
2023-05-14T02:55:44.185Z,101516.78
2023-05-14T02:57:45.832Z,101493.28
2023-05-14T02:59:47.223Z,101513.38
2023-05-14T03:01:49.068Z,101513.38
2023-05-14T03:03:51.081Z,101490.63
2023-05-14T03:05:53.048Z,101509.66
2023-05-14T03:07:54.447Z,101513.81
2023-05-14T03:09:55.982Z,101518.28
2023-05-14T03:11:57.441Z,101502.91
2023-05-14T03:13:58.868Z,101515.88
2023-05-14T03:16:00.373Z,101504.75
2023-05-14T03:18:01.854Z,101513.38
2023-05-14T03:20:03.703Z,101503.25
2023-05-14T03:22:05.207Z,101489.50
2023-05-14T03:24:06.709Z,101504.53
2023-05-14T03:26:08.100Z,101513.00
2023-05-14T03:28:09.676Z,101512.34
2023-05-14T03:30:11.685Z,101501.19
2023-05-14T03:32:13.170Z,101499.84
2023-05-14T03:34:14.785Z,101491.34
2023-05-14T03:36:16.219Z,101496.75
2023-05-14T03:38:17.738Z,101485.66
2023-05-14T03:40:19.261Z,101512.75
2023-05-14T03:42:20.647Z,101500.47
2023-05-14T03:44:22.084Z,101500.13
2023-05-14T03:46:23.625Z,101494.97
2023-05-14T03:48:25.120Z,101496.28
2023-05-14T03:50:26.676Z,101499.56
2023-05-14T03:52:28.183Z,101492.28
2023-05-14T03:54:29.589Z,101490.66
2023-05-14T03:56:31.071Z,101482.09
2023-05-14T03:58:32.808Z,101482.50
2023-05-14T04:00:34.224Z,101486.69
2023-05-14T04:02:35.688Z,101493.34
2023-05-14T04:04:37.326Z,101482.97
2023-05-14T04:06:38.871Z,101483.09
2023-05-14T04:08:40.253Z,101481.78
2023-05-14T04:10:42.866Z,101479.34
2023-05-14T04:12:44.262Z,101473.16
2023-05-14T04:14:45.724Z,101469.59
2023-05-14T04:16:47.251Z,101490.22
2023-05-14T04:18:48.808Z,101480.78
2023-05-14T04:20:50.217Z,101484.03
2023-05-14T04:22:51.936Z,101465.53
2023-05-14T04:24:53.315Z,101494.66
2023-05-14T04:26:54.759Z,101506.91
2023-05-14T04:28:56.240Z,101498.81
2023-05-14T04:30:57.670Z,101492.03
2023-05-14T04:32:59.135Z,101479.34
2023-05-14T04:35:00.887Z,101478.28
2023-05-14T04:37:02.255Z,101486.13
2023-05-14T04:39:03.690Z,101486.22
2023-05-14T04:41:05.454Z,101479.59
2023-05-14T04:43:07.423Z,101489.38
2023-05-14T04:45:09.291Z,101495.88
2023-05-14T04:47:10.789Z,101478.41
2023-05-14T04:49:12.206Z,101480.19
2023-05-14T04:51:14.189Z,101474.66
2023-05-14T04:53:15.860Z,101489.13
2023-05-14T04:55:17.284Z,101479.56
2023-05-14T04:57:18.698Z,101487.63
2023-05-14T04:59:20.439Z,101487.88
2023-05-14T05:01:22.367Z,101484.41
2023-05-14T05:03:23.924Z,101473.38
2023-05-14T05:05:25.616Z,101474.84
2023-05-14T05:07:27.110Z,101480.28
2023-05-14T05:09:28.510Z,101478.53
2023-05-14T05:11:30.003Z,101473.31
2023-05-14T05:13:31.429Z,101461.91
2023-05-14T05:15:32.843Z,101475.88
2023-05-14T05:17:34.471Z,101474.59
2023-05-14T05:19:43.160Z,101475.41
2023-05-14T05:21:45.464Z,101476.28
2023-05-14T05:23:46.954Z,101483.53
2023-05-14T05:25:49.250Z,101474.59
2023-05-14T05:27:50.650Z,101478.78
2023-05-14T05:29:52.145Z,101479.59
2023-05-14T05:31:53.644Z,101488.78
2023-05-14T05:33:55.142Z,101467.41
2023-05-14T05:35:59.274Z,101471.97
2023-05-14T05:38:01.717Z,101462.56
2023-05-14T05:40:04.078Z,101468.66
2023-05-14T05:42:05.965Z,101466.50
2023-05-14T05:44:07.347Z,101457.66
2023-05-14T05:46:08.798Z,101456.81
2023-05-14T05:48:10.308Z,101466.81
2023-05-14T05:50:11.800Z,101459.97
2023-05-14T05:52:13.262Z,101447.16
2023-05-14T05:54:14.971Z,101469.09
2023-05-14T05:56:16.382Z,101476.53
2023-05-14T05:58:20.558Z,101472.09
2023-05-14T06:00:23.375Z,101467.09
2023-05-14T06:02:25.823Z,101467.13
2023-05-14T06:04:27.349Z,101469.78
2023-05-14T06:06:29.340Z,101464.59
2023-05-14T06:08:30.721Z,101466.00
2023-05-14T06:10:32.193Z,101458.66
2023-05-14T06:12:33.766Z,101460.34
2023-05-14T06:14:35.148Z,101452.38
2023-05-14T06:16:36.693Z,101469.34
2023-05-14T06:18:38.417Z,101462.16
2023-05-14T06:20:39.896Z,101465.06
2023-05-14T06:22:41.912Z,101457.72
2023-05-14T06:24:43.558Z,101459.03
2023-05-14T06:26:44.967Z,101457.25
2023-05-14T06:28:46.466Z,101464.19
2023-05-14T06:30:50.258Z,101471.19
2023-05-14T06:32:51.763Z,101467.50
2023-05-14T06:34:53.190Z,101464.34
2023-05-14T06:36:54.798Z,101445.78
2023-05-14T06:38:56.207Z,101449.94
2023-05-14T06:40:57.612Z,101465.25
2023-05-14T06:42:59.098Z,101455.63
2023-05-14T06:45:00.663Z,101468.88
2023-05-14T06:47:02.079Z,101463.34
2023-05-14T06:49:03.654Z,101452.91
2023-05-14T06:51:05.143Z,101467.44
2023-05-14T06:53:06.580Z,101463.53
2023-05-14T06:55:08.340Z,101458.47
2023-05-14T06:57:09.763Z,101455.38
2023-05-14T06:59:11.155Z,101462.78
2023-05-14T07:01:13.137Z,101434.81
2023-05-14T07:03:14.555Z,101450.22
2023-05-14T07:05:15.937Z,101438.72
2023-05-14T07:07:17.572Z,101440.94
2023-05-14T07:09:18.973Z,101427.78
2023-05-14T07:11:20.385Z,101446.91
2023-05-14T07:13:21.994Z,101439.44
2023-05-14T07:15:23.414Z,101425.44
2023-05-14T07:17:25.040Z,101441.59
2023-05-14T07:19:26.756Z,101434.56
2023-05-14T07:21:28.151Z,101435.06
2023-05-14T07:23:29.571Z,101442.50
2023-05-14T07:25:31.077Z,101436.44
2023-05-14T07:27:32.476Z,101449.88
2023-05-14T07:29:34.111Z,101442.03
2023-05-14T07:31:35.656Z,101429.34
2023-05-14T07:33:37.097Z,101441.22
2023-05-14T07:35:38.615Z,101438.03
2023-05-14T07:37:40.296Z,101424.28
2023-05-14T07:39:41.738Z,101440.03
2023-05-14T07:41:43.236Z,101431.03
2023-05-14T07:43:44.697Z,101436.72
2023-05-14T07:45:46.107Z,101427.13
2023-05-14T07:47:47.607Z,101403.09
2023-05-14T07:49:49.114Z,101437.72
2023-05-14T07:51:50.545Z,101428.66
2023-05-14T07:53:51.983Z,101439.44
2023-05-14T07:55:53.429Z,101421.09
2023-05-14T07:57:54.859Z,101421.06
2023-05-14T07:59:56.865Z,101428.66
2023-05-14T08:01:58.522Z,101412.81
2023-05-14T08:04:00.114Z,101419.66
2023-05-14T08:06:01.680Z,101404.75
2023-05-14T08:08:03.163Z,101410.44
2023-05-14T08:10:05.002Z,101399.97
2023-05-14T08:12:07.057Z,101394.75
2023-05-14T08:14:08.494Z,101402.84
2023-05-14T08:16:10.091Z,101401.47
2023-05-14T08:18:11.644Z,101383.56
2023-05-14T08:20:13.211Z,101369.91
2023-05-14T08:22:14.723Z,101395.44
2023-05-14T08:24:16.129Z,101396.38
2023-05-14T08:26:17.694Z,101386.22
2023-05-14T08:28:19.906Z,101378.72
2023-05-14T08:30:21.867Z,101388.88
2023-05-14T08:32:24.268Z,101393.41
2023-05-14T08:34:25.910Z,101389.00
2023-05-14T08:36:27.336Z,101393.53
2023-05-14T08:38:28.802Z,101390.03
2023-05-14T08:40:30.233Z,101386.00
2023-05-14T08:42:31.980Z,101389.25
2023-05-14T08:44:58.370Z,101362.88
2023-05-14T08:47:00.367Z,101386.72
2023-05-14T08:49:15.059Z,101396.72
2023-05-14T08:51:16.544Z,101372.97
2023-05-14T08:53:18.002Z,101371.91
2023-05-14T08:55:19.999Z,101360.66
2023-05-14T08:57:22.890Z,101374.78
2023-05-14T08:59:24.373Z,101367.03
2023-05-14T09:01:26.184Z,101359.03
2023-05-14T09:03:27.841Z,101381.25
2023-05-14T09:05:29.344Z,101377.44
2023-05-14T09:07:31.005Z,101372.69
2023-05-14T09:09:32.817Z,101364.66
2023-05-14T09:11:34.198Z,101380.66
2023-05-14T09:13:38.742Z,101368.47
2023-05-14T09:15:40.141Z,101366.72
2023-05-14T09:17:41.591Z,101371.50
2023-05-14T09:19:43.958Z,101364.47
2023-05-14T09:21:46.515Z,101355.78
2023-05-14T09:23:53.898Z,101359.72
2023-05-14T09:25:55.372Z,101365.97
2023-05-14T09:27:58.683Z,101355.28
2023-05-14T09:30:12.223Z,101359.16
2023-05-14T09:32:13.934Z,101355.41
2023-05-14T09:34:27.415Z,101362.84
2023-05-14T09:36:28.796Z,101349.19
2023-05-14T09:38:33.925Z,101352.06
2023-05-14T09:40:35.394Z,101357.13
2023-05-14T09:42:36.777Z,101349.41
2023-05-14T09:44:38.174Z,101356.09
2023-05-14T09:46:39.574Z,101353.50
2023-05-14T09:48:41.022Z,101350.13
2023-05-14T09:50:43.817Z,101344.53
2023-05-14T09:52:45.242Z,101346.28
2023-05-14T09:54:46.721Z,101335.81
2023-05-14T09:56:50.451Z,101314.56
2023-05-14T09:58:51.856Z,101317.22
2023-05-14T10:00:54.486Z,101333.53
2023-05-14T10:02:58.605Z,101341.72
2023-05-14T10:05:03.949Z,101330.59
2023-05-14T10:07:05.442Z,101324.81
2023-05-14T10:09:12.468Z,101324.72
2023-05-14T10:11:15.528Z,101303.16
2023-05-14T10:13:20.752Z,101315.25
2023-05-14T10:15:50.972Z,101322.56
2023-05-14T10:17:56.681Z,101313.59
2023-05-14T10:19:59.872Z,101308.59
2023-05-14T10:22:07.685Z,101302.66
2023-05-14T10:24:10.000Z,101304.53
2023-05-14T10:26:11.909Z,101298.09
2023-05-14T10:28:13.826Z,101286.13
2023-05-14T10:30:15.302Z,101288.34
2023-05-14T10:32:16.687Z,101289.78
2023-05-14T10:34:37.054Z,101285.50
2023-05-14T10:36:38.704Z,101279.66
2023-05-14T10:38:40.228Z,101287.13
2023-05-14T10:40:41.684Z,101282.31
2023-05-14T10:42:43.765Z,101261.91
2023-05-14T10:44:52.945Z,101272.47
2023-05-14T10:46:54.465Z,101268.19
2023-05-14T10:48:56.789Z,101262.19
2023-05-14T10:50:58.640Z,101272.38
2023-05-14T10:53:00.315Z,101227.09
2023-05-14T10:55:06.217Z,101250.63
2023-05-14T10:57:11.664Z,101251.22
2023-05-14T10:59:13.098Z,101240.03
2023-05-14T11:01:14.544Z,101248.94
2023-05-14T11:03:16.266Z,101247.53
2023-05-14T11:05:17.982Z,101233.34
2023-05-14T11:07:24.082Z,101236.91
2023-05-14T11:09:25.766Z,101229.50
2023-05-14T11:11:29.175Z,101211.72
2023-05-14T11:13:30.730Z,101229.44
2023-05-14T11:15:32.236Z,101226.97
2023-05-14T11:17:35.413Z,101212.41
2023-05-14T11:19:37.457Z,101210.91
2023-05-14T11:21:39.136Z,101220.69
2023-05-14T11:23:40.591Z,101212.47
2023-05-14T11:25:42.885Z,101223.06
2023-05-14T11:27:45.592Z,101219.81
2023-05-14T11:29:48.627Z,101212.84
2023-05-14T11:31:50.498Z,101195.41
2023-05-14T11:33:52.595Z,101186.84
2023-05-14T11:35:54.116Z,101195.56
2023-05-14T11:37:55.616Z,101177.44
2023-05-14T11:40:00.977Z,101174.09
2023-05-14T11:42:03.026Z,101171.78
2023-05-14T11:44:04.563Z,101176.88
2023-05-14T11:46:06.048Z,101175.63
2023-05-14T11:48:13.342Z,101182.91
2023-05-14T11:50:16.502Z,101185.78
2023-05-14T11:52:18.115Z,101179.44
2023-05-14T11:54:19.511Z,101178.03
2023-05-14T11:56:21.876Z,101172.31
2023-05-14T11:58:24.753Z,101166.41
2023-05-14T12:00:26.642Z,101155.44
2023-05-14T12:02:28.822Z,101154.59
2023-05-14T12:04:30.892Z,101143.19
2023-05-14T12:06:32.584Z,101133.91
2023-05-14T12:08:34.195Z,101141.22
2023-05-14T12:10:42.468Z,101147.66
2023-05-14T12:12:47.305Z,101132.13
2023-05-14T12:14:50.238Z,101142.16
2023-05-14T12:16:51.631Z,101130.56
2023-05-14T12:18:53.108Z,101131.00
2023-05-14T12:20:54.834Z,101142.47
2023-05-14T12:22:56.300Z,101138.28
2023-05-14T12:24:59.837Z,101138.72
2023-05-14T12:27:01.669Z,101145.22
2023-05-14T12:29:03.779Z,101129.91
2023-05-14T12:31:05.321Z,101123.72
2023-05-14T12:33:06.784Z,101122.06
2023-05-14T12:35:09.027Z,101129.66
2023-05-14T12:37:10.435Z,101108.59
2023-05-14T12:39:12.013Z,101101.03
2023-05-14T12:41:13.516Z,101116.78
2023-05-14T12:43:16.974Z,101119.13
2023-05-14T12:45:18.334Z,101113.28
2023-05-14T12:47:19.982Z,101096.91
2023-05-14T12:49:21.409Z,101119.50
2023-05-14T12:51:23.406Z,101110.31
2023-05-14T12:53:24.815Z,101119.56
2023-05-14T12:55:26.263Z,101102.44
2023-05-14T12:57:27.813Z,101095.94
2023-05-14T12:59:29.207Z,101115.16
2023-05-14T13:01:30.709Z,101102.47
2023-05-14T13:03:32.564Z,101083.81
2023-05-14T13:05:33.988Z,101080.34
2023-05-14T13:07:35.506Z,101094.25
2023-05-14T13:09:36.912Z,101090.78
2023-05-14T13:11:38.298Z,101093.22
2023-05-14T13:13:39.725Z,101085.91
2023-05-14T13:15:41.173Z,101073.31
2023-05-14T13:17:42.636Z,101086.50
2023-05-14T13:19:44.063Z,101066.53
2023-05-14T13:21:45.519Z,101073.75
2023-05-14T13:23:47.724Z,101074.28
2023-05-14T13:25:50.037Z,101062.94
2023-05-14T13:27:51.649Z,101062.25
2023-05-14T13:29:53.043Z,101066.38
2023-05-14T13:31:54.449Z,101070.56
2023-05-14T13:33:55.839Z,101050.25
2023-05-14T13:35:57.228Z,101057.91
2023-05-14T13:37:58.631Z,101049.59
2023-05-14T13:40:00.173Z,101060.50
2023-05-14T13:42:01.585Z,101049.59
2023-05-14T13:44:03.547Z,101057.63
2023-05-14T13:46:05.511Z,101054.44
2023-05-14T13:48:07.062Z,101045.34
2023-05-14T13:50:08.952Z,101050.09
2023-05-14T13:52:10.516Z,101035.34
2023-05-14T13:54:12.004Z,101039.06
2023-05-14T13:56:13.390Z,101041.94
2023-05-14T13:58:15.102Z,101017.31
2023-05-14T14:00:16.890Z,101037.38
2023-05-14T14:02:18.327Z,101031.66
2023-05-14T14:04:19.741Z,101025.06
2023-05-14T14:06:21.158Z,101036.91
2023-05-14T14:08:24.308Z,101035.50
2023-05-14T14:10:26.077Z,101030.44
2023-05-14T14:12:27.788Z,101022.34
2023-05-14T14:14:29.303Z,101007.34
2023-05-14T14:16:30.857Z,101024.25
2023-05-14T14:18:32.618Z,101018.66
2023-05-14T14:20:34.034Z,101019.06
2023-05-14T14:22:36.101Z,101015.72
2023-05-14T14:24:37.500Z,100998.28
2023-05-14T14:26:38.919Z,101004.66
2023-05-14T14:28:40.438Z,101013.38
2023-05-14T14:30:42.333Z,100989.44
2023-05-14T14:32:48.517Z,101007.41
2023-05-14T14:34:50.708Z,100990.84
2023-05-14T14:36:52.126Z,100995.28
2023-05-14T14:38:53.520Z,101004.97
2023-05-14T14:40:55.169Z,100992.56
2023-05-14T14:42:56.575Z,100985.97
2023-05-14T14:44:57.968Z,100995.47
2023-05-14T14:46:59.369Z,100994.44
2023-05-14T14:49:00.793Z,100985.34
2023-05-14T14:51:02.260Z,100988.88
2023-05-14T14:53:03.655Z,100981.34
2023-05-14T14:55:05.645Z,100977.19
2023-05-14T14:57:07.038Z,100981.50
2023-05-14T14:59:08.500Z,100979.19
2023-05-14T15:01:09.967Z,100968.28
2023-05-14T15:03:11.993Z,100963.16
2023-05-14T15:05:13.638Z,100957.50
2023-05-14T15:07:15.039Z,100976.13
2023-05-14T15:09:16.478Z,100968.09
2023-05-14T15:11:18.082Z,100976.88
2023-05-14T15:13:19.498Z,100969.63
2023-05-14T15:15:20.992Z,100966.19
2023-05-14T15:17:23.308Z,100969.34
2023-05-14T15:19:24.761Z,100960.78
2023-05-14T15:21:26.272Z,100956.69
2023-05-14T15:23:27.715Z,100952.03
2023-05-14T15:25:29.126Z,100956.31
2023-05-14T15:27:30.510Z,100940.03
2023-05-14T15:29:32.109Z,100954.41
2023-05-14T15:31:33.732Z,100953.03
2023-05-14T15:33:35.795Z,100958.84
2023-05-14T15:35:37.233Z,100957.28
2023-05-14T15:37:41.310Z,100956.44
2023-05-14T15:39:42.806Z,100945.41
2023-05-14T15:41:44.933Z,100961.59
2023-05-14T15:43:46.395Z,100944.31
2023-05-14T15:45:47.827Z,100951.72
2023-05-14T15:47:49.264Z,100941.78
2023-05-14T15:49:50.667Z,100939.69
2023-05-14T15:51:52.172Z,100942.91
2023-05-14T15:53:54.197Z,100933.16
2023-05-14T15:55:55.673Z,100936.03
2023-05-14T15:57:57.214Z,100934.03
2023-05-14T15:59:58.673Z,100935.22
2023-05-14T16:02:00.237Z,100929.72
2023-05-14T16:04:01.792Z,100936.41
2023-05-14T16:06:03.669Z,100929.44
2023-05-14T16:08:05.452Z,100929.66
2023-05-14T16:10:07.365Z,100928.03
2023-05-14T16:12:09.105Z,100922.84
2023-05-14T16:14:10.552Z,100930.72
2023-05-14T16:16:12.126Z,100929.97
2023-05-14T16:18:13.692Z,100931.16
2023-05-14T16:20:15.285Z,100926.50
2023-05-14T16:22:16.679Z,100930.31
2023-05-14T16:24:18.606Z,100913.84
2023-05-14T16:26:20.126Z,100927.91
2023-05-14T16:28:21.619Z,100931.69
2023-05-14T16:30:23.298Z,100917.00
2023-05-14T16:32:24.848Z,100918.97
2023-05-14T16:34:26.248Z,100914.03
2023-05-14T16:36:28.137Z,100905.91
2023-05-14T16:38:29.533Z,100905.59
2023-05-14T16:40:30.954Z,100898.03
2023-05-14T16:42:32.514Z,100880.53
2023-05-14T16:44:33.926Z,100900.22
2023-05-14T16:46:35.373Z,100895.63
2023-05-14T16:48:36.835Z,100901.22
2023-05-14T16:50:38.268Z,100885.16
2023-05-14T16:52:39.764Z,100886.53
2023-05-14T16:54:41.774Z,100887.16
2023-05-14T16:56:43.212Z,100869.78
2023-05-14T16:58:44.625Z,100870.41
2023-05-14T17:00:46.256Z,100879.63
2023-05-14T17:02:47.662Z,100866.66
2023-05-14T17:04:49.139Z,100880.75
2023-05-14T17:06:50.739Z,100881.38
2023-05-14T17:08:52.281Z,100887.88
2023-05-14T17:10:53.946Z,100882.81
2023-05-14T17:12:55.718Z,100871.00
2023-05-14T17:14:57.105Z,100888.69
2023-05-14T17:16:58.634Z,100874.81
2023-05-14T17:19:00.143Z,100869.84
2023-05-14T17:21:01.588Z,100884.97
2023-05-14T17:23:02.977Z,100881.44
2023-05-14T17:25:04.719Z,100886.13
2023-05-14T17:27:06.406Z,100884.81
2023-05-14T17:29:07.811Z,100891.47
2023-05-14T17:31:09.371Z,100882.88
2023-05-14T17:33:12.215Z,100889.44
2023-05-14T17:35:13.798Z,100891.09
2023-05-14T17:37:15.312Z,100886.69
2023-05-14T17:39:16.755Z,100889.38
2023-05-14T17:41:18.135Z,100891.56
2023-05-14T17:43:19.693Z,100883.09
2023-05-14T17:45:21.143Z,100894.09
2023-05-14T17:47:22.619Z,100891.44
2023-05-14T17:49:24.461Z,100880.09
2023-05-14T17:51:25.852Z,100892.81
2023-05-14T17:53:27.277Z,100886.25
2023-05-14T17:55:29.067Z,100874.47
2023-05-14T17:57:30.520Z,100884.81
2023-05-14T17:59:31.944Z,100893.56
2023-05-14T18:01:33.630Z,100887.63
2023-05-14T18:03:35.393Z,100871.94
2023-05-14T18:05:37.019Z,100889.38
2023-05-14T18:07:38.633Z,100871.56
2023-05-14T18:09:40.068Z,100851.66
2023-05-14T18:11:42.209Z,100875.53
2023-05-14T18:13:43.780Z,100872.66
2023-05-14T18:15:45.230Z,100891.34
2023-05-14T18:17:47.103Z,100882.13
2023-05-14T18:19:48.560Z,100875.34
2023-05-14T18:21:49.955Z,100872.91
2023-05-14T18:23:51.369Z,100862.19
2023-05-14T18:25:52.849Z,100871.75
2023-05-14T18:27:54.419Z,100879.47
2023-05-14T18:29:55.920Z,100880.94
2023-05-14T18:31:57.442Z,100875.97
2023-05-14T18:33:58.848Z,100869.16
2023-05-14T18:36:01.032Z,100879.53
2023-05-14T18:38:02.671Z,100877.09
2023-05-14T18:40:07.693Z,100866.75
2023-05-14T18:42:09.201Z,100854.09
2023-05-14T18:44:10.738Z,100877.31
2023-05-14T18:46:12.257Z,100869.06
2023-05-14T18:48:14.572Z,100878.19
2023-05-14T18:50:16.045Z,100866.56
2023-05-14T18:52:17.443Z,100869.47
2023-05-14T18:54:18.923Z,100852.88
2023-05-14T18:56:20.343Z,100864.50
2023-05-14T18:58:21.746Z,100856.41
2023-05-14T19:00:23.365Z,100867.25
2023-05-14T19:02:24.941Z,100860.03
2023-05-14T19:04:26.440Z,100859.16
2023-05-14T19:06:28.165Z,100870.75
2023-05-14T19:08:29.653Z,100861.56
2023-05-14T19:10:31.057Z,100871.34
2023-05-14T19:12:32.520Z,100855.13
2023-05-14T19:14:34.047Z,100868.34
2023-05-14T19:16:35.502Z,100862.25
2023-05-14T19:18:36.999Z,100862.53
2023-05-14T19:20:38.522Z,100841.22
2023-05-14T19:22:39.932Z,100867.50
2023-05-14T19:24:41.361Z,100863.19
2023-05-14T19:26:42.965Z,100863.75
2023-05-14T19:28:44.559Z,100852.03
2023-05-14T19:30:45.954Z,100857.16
2023-05-14T19:32:47.480Z,100848.41
2023-05-14T19:34:49.613Z,100863.31
2023-05-14T19:36:52.897Z,100855.81
2023-05-14T19:38:54.382Z,100850.13
2023-05-14T19:40:55.813Z,100855.66
2023-05-14T19:42:57.248Z,100858.81
2023-05-14T19:44:58.796Z,100855.50
2023-05-14T19:47:00.541Z,100847.38
2023-05-14T19:49:01.991Z,100850.72
2023-05-14T19:51:03.553Z,100854.44
2023-05-14T19:53:04.982Z,100848.16
2023-05-14T19:55:06.610Z,100853.44
2023-05-14T19:57:09.479Z,100843.16
2023-05-14T19:59:10.906Z,100839.94
2023-05-14T20:01:12.446Z,100838.88
2023-05-14T20:03:14.091Z,100832.03
2023-05-14T20:05:15.975Z,100844.91
2023-05-14T20:07:17.421Z,100823.44
2023-05-14T20:09:19.116Z,100849.13
2023-05-14T20:11:20.799Z,100842.47
2023-05-14T20:13:24.488Z,100839.81
2023-05-14T20:15:26.769Z,100836.47
2023-05-14T20:17:28.214Z,100839.50
2023-05-14T20:19:29.665Z,100838.03
2023-05-14T20:21:31.217Z,100825.66
2023-05-14T20:23:32.696Z,100842.34
2023-05-14T20:25:35.096Z,100838.78
2023-05-14T20:27:36.748Z,100821.22
2023-05-14T20:29:38.133Z,100829.91
2023-05-14T20:31:39.583Z,100829.97
2023-05-14T20:33:41.132Z,100803.88
2023-05-14T20:35:42.570Z,100822.84
2023-05-14T20:37:44.014Z,100823.06
2023-05-14T20:39:46.229Z,100812.78
2023-05-14T20:41:47.681Z,100799.25
2023-05-14T20:43:49.081Z,100813.81
2023-05-14T20:45:50.478Z,100804.63
2023-05-14T20:47:51.939Z,100798.66
2023-05-14T20:49:53.405Z,100793.69
2023-05-14T20:51:54.902Z,100799.63
2023-05-14T20:53:56.312Z,100800.31
2023-05-14T20:55:57.757Z,100797.03
2023-05-14T20:57:59.188Z,100782.38
2023-05-14T21:00:01.516Z,100762.88
2023-05-14T21:02:03.195Z,100797.19
2023-05-14T21:04:04.979Z,100785.84
2023-05-14T21:06:06.618Z,100777.59
2023-05-14T21:08:08.042Z,100784.88
2023-05-14T21:10:10.038Z,100767.06
2023-05-14T21:12:11.590Z,100775.38
2023-05-14T21:14:13.539Z,100772.53
2023-05-14T21:16:15.672Z,100764.22
2023-05-14T21:18:17.102Z,100751.25
2023-05-14T21:20:18.570Z,100760.88
2023-05-14T21:22:21.974Z,100764.56
2023-05-14T21:24:23.371Z,100765.56
2023-05-14T21:26:25.688Z,100754.63
2023-05-14T21:28:27.174Z,100760.06
2023-05-14T21:30:28.584Z,100748.28
2023-05-14T21:32:30.032Z,100750.13
2023-05-14T21:34:32.075Z,100753.09
2023-05-14T21:36:33.675Z,100764.00
2023-05-14T21:38:35.308Z,100754.03
2023-05-14T21:40:36.780Z,100745.72
2023-05-14T21:42:38.835Z,100740.31
2023-05-14T21:44:40.222Z,100755.63
2023-05-14T21:46:41.717Z,100752.31
2023-05-14T21:48:43.187Z,100753.31
2023-05-14T21:50:44.626Z,100708.91
2023-05-14T21:52:46.301Z,100737.50
2023-05-14T21:54:47.689Z,100734.00
2023-05-14T21:56:49.268Z,100738.50
2023-05-14T21:58:50.877Z,100732.56
2023-05-14T22:00:52.359Z,100737.31
2023-05-14T22:02:53.859Z,100731.81
2023-05-14T22:04:55.441Z,100728.59
2023-05-14T22:06:56.956Z,100727.59
2023-05-14T22:08:58.350Z,100709.06
2023-05-14T22:11:00.311Z,100707.22
2023-05-14T22:13:01.739Z,100702.38
2023-05-14T22:15:03.615Z,100728.50
2023-05-14T22:17:05.182Z,100697.31
2023-05-14T22:19:06.742Z,100712.66
2023-05-14T22:21:08.317Z,100704.50
2023-05-14T22:23:09.931Z,100709.69
2023-05-14T22:25:11.373Z,100704.81
2023-05-14T22:27:12.764Z,100707.78
2023-05-14T22:29:14.173Z,100679.44
2023-05-14T22:31:16.070Z,100681.38
2023-05-14T22:33:17.490Z,100704.63
2023-05-14T22:35:18.911Z,100665.78
2023-05-14T22:37:20.321Z,100668.63
2023-05-14T22:39:21.716Z,100679.75
2023-05-14T22:41:23.216Z,100680.03
2023-05-14T22:43:24.636Z,100682.50
2023-05-14T22:45:26.304Z,100668.78
2023-05-14T22:47:28.077Z,100676.81
2023-05-14T22:49:29.499Z,100668.44
2023-05-14T22:51:30.895Z,100668.72
2023-05-14T22:53:32.528Z,100669.72
2023-05-14T22:55:34.221Z,100659.38
2023-05-14T22:57:35.823Z,100650.13
2023-05-14T22:59:37.677Z,100644.47
2023-05-14T23:01:39.560Z,100653.38
2023-05-14T23:03:41.047Z,100645.03
2023-05-14T23:05:42.636Z,100656.34
2023-05-14T23:07:44.201Z,100644.28
2023-05-14T23:09:45.647Z,100634.44
2023-05-14T23:11:47.208Z,100629.78
2023-05-14T23:13:48.687Z,100633.75